Latest METARs, TAFs and NOTAMs for EGLF


---------------------------------------------------------------------------
	(OBSERVATIONS)
EGLF 180950Z 04007KT 8000 FEW015 06/05 Q1027=
EGLF 180920Z 04006KT 9000 FEW015 05/04 Q1027=
EGLF 180850Z 04006KT 9000 NSC 04/04 Q1027=
EGLF 180820Z 02004KT 350V060 8000 NSC 03/03 Q1027=
EGLF 180750Z 36003KT 8000 NSC 03/02 Q1027=
EGLF 180720Z NIL=
---------------------------------------------------------------------------
	(FC)
TAF EGLF 180829Z 1809/1818 05009KT 9000 FEW010
     BECMG 1809/1811 CAVOK=
---------------------------------------------------------------------------
	(TERMINAL AREA FORECAST)
EGLF 180829Z 1809/1818 05009KT 9000 FEW010
    BECMG 1809/1811 CAVOK=
---------------------------------------------------------------------------
	(NOTAMS)


EGLF B2083/18 AMEND AIC Y096/2017. PARAGRAPH 7.8.1, 8.2, 9.3,
    10.3 AND 10.6 REPLACE FREQ 134.350MHZ WITH 134.355MHZ. 2018-10-0241/AS3.
    08 OCT 12:20 2018 UNTIL 05 DEC 14:30 2018. CREATED: 08 OCT
    12:20 2018

EGLF C4956/18 LOCAL TRAFFIC REGULATIONS. 1 AIRPORT REGULATIONS.
    ADD NEW SUB PARAGRAPH (N) ENGINE START UTILISING CROSS BLEED
    AIR IS NOT AVAILABLE ON THE FOLLOWING APRONS/RAMPS: - - EAST
    APRON - HANGAR 1 - 6 RAMP - TOWER 4 - 6 RAMP - TERMINAL RAMP
    (EXCEPT FOR AIRCRAFT PARKED ON TERMINAL GRASS) EGLF AD 2.20
    REFERS. 03 SEP 16:22 2018 UNTIL PERM. CREATED: 03 SEP 16:22
    2018

EGLF C5885/18 TRIGGER NOTAM - PERM AIRAC AIP AMDT 13/2018 WEF
    06 DEC 18. OBSTACLES, FLIGHT PROCEDURES, LOCAL TRAFFIC REGULATIONS
    AMENDED. 06 DEC 00:00 2018 UNTIL 20 DEC 23:59 2018. CREATED:
    25 OCT 06:17 2018

EGLF C5997/18 EAST APRON IS UNAVAILABLE DUE WIP. 31 OCT 07:00
    2018 UNTIL 14 DEC 22:00 2018. CREATED: 30 OCT 12:11 2018

---------------------------------------------------------------------------